sensor_id;sensor_type;location;lat;lon;timestamp;P1;durP1;ratioP1;P2;durP2;ratioP2
31424;SDS011;18054;51.572;7.372;2024-02-16T00:01:09;6.68;;;1.73;;
31424;SDS011;18054;51.572;7.372;2024-02-16T00:06:06;4.72;;;1.40;;
31424;SDS011;18054;51.572;7.372;2024-02-16T00:08:34;5.97;;;1.60;;
31424;SDS011;18054;51.572;7.372;2024-02-16T00:11:05;11.25;;;1.50;;
31424;SDS011;18054;51.572;7.372;2024-02-16T00:16:00;1.98;;;1.00;;
31424;SDS011;18054;51.572;7.372;2024-02-16T00:18:28;9.27;;;1.58;;
31424;SDS011;18054;51.572;7.372;2024-02-16T00:20:56;5.47;;;1.50;;
31424;SDS011;18054;51.572;7.372;2024-02-16T00:33:17;3.92;;;1.30;;
31424;SDS011;18054;51.572;7.372;2024-02-16T00:35:45;8.38;;;1.45;;
31424;SDS011;18054;51.572;7.372;2024-02-16T00:38:15;3.17;;;1.20;;
31424;SDS011;18054;51.572;7.372;2024-02-16T00:40:42;3.67;;;1.30;;
31424;SDS011;18054;51.572;7.372;2024-02-16T00:43:11;6.50;;;1.75;;
31424;SDS011;18054;51.572;7.372;2024-02-16T00:45:39;9.77;;;1.70;;
31424;SDS011;18054;51.572;7.372;2024-02-16T00:48:10;6.22;;;1.95;;
31424;SDS011;18054;51.572;7.372;2024-02-16T00:50:39;7.38;;;1.60;;
31424;SDS011;18054;51.572;7.372;2024-02-16T00:53:10;6.35;;;1.70;;
31424;SDS011;18054;51.572;7.372;2024-02-16T00:55:38;5.60;;;1.83;;
31424;SDS011;18054;51.572;7.372;2024-02-16T00:58:08;7.18;;;1.45;;
31424;SDS011;18054;51.572;7.372;2024-02-16T01:02:34;7.95;;;1.80;;
31424;SDS011;18054;51.572;7.372;2024-02-16T01:05:02;5.55;;;1.70;;
31424;SDS011;18054;51.572;7.372;2024-02-16T01:07:30;5.25;;;1.50;;
31424;SDS011;18054;51.572;7.372;2024-02-16T01:09:59;4.95;;;1.63;;
31424;SDS011;18054;51.572;7.372;2024-02-16T01:17:22;7.05;;;2.05;;
31424;SDS011;18054;51.572;7.372;2024-02-16T01:19:50;4.47;;;1.50;;
31424;SDS011;18054;51.572;7.372;2024-02-16T01:22:18;3.25;;;1.27;;
31424;SDS011;18054;51.572;7.372;2024-02-16T01:24:45;8.50;;;1.73;;
31424;SDS011;18054;51.572;7.372;2024-02-16T01:27:13;8.15;;;1.52;;
31424;SDS011;18054;51.572;7.372;2024-02-16T01:29:40;5.78;;;1.73;;
31424;SDS011;18054;51.572;7.372;2024-02-16T01:32:08;9.25;;;1.80;;
31424;SDS011;18054;51.572;7.372;2024-02-16T01:34:36;7.55;;;1.80;;
31424;SDS011;18054;51.572;7.372;2024-02-16T01:37:07;7.97;;;1.75;;
31424;SDS011;18054;51.572;7.372;2024-02-16T01:39:34;5.03;;;1.77;;
31424;SDS011;18054;51.572;7.372;2024-02-16T01:42:02;7.50;;;3.15;;
31424;SDS011;18054;51.572;7.372;2024-02-16T01:44:29;5.22;;;1.70;;
31424;SDS011;18054;51.572;7.372;2024-02-16T01:46:56;6.32;;;1.88;;
31424;SDS011;18054;51.572;7.372;2024-02-16T01:49:24;4.57;;;1.77;;
31424;SDS011;18054;51.572;7.372;2024-02-16T01:51:52;4.72;;;1.92;;
31424;SDS011;18054;51.572;7.372;2024-02-16T01:54:20;6.22;;;1.92;;
31424;SDS011;18054;51.572;7.372;2024-02-16T01:56:48;10.15;;;1.95;;
31424;SDS011;18054;51.572;7.372;2024-02-16T01:59:17;5.65;;;1.90;;
31424;SDS011;18054;51.572;7.372;2024-02-16T02:01:44;6.93;;;1.83;;
31424;SDS011;18054;51.572;7.372;2024-02-16T02:04:12;7.00;;;2.17;;
31424;SDS011;18054;51.572;7.372;2024-02-16T02:06:39;6.18;;;1.50;;
31424;SDS011;18054;51.572;7.372;2024-02-16T02:09:07;6.25;;;2.03;;
31424;SDS011;18054;51.572;7.372;2024-02-16T02:11:36;5.20;;;1.50;;
31424;SDS011;18054;51.572;7.372;2024-02-16T02:14:04;5.43;;;1.63;;
31424;SDS011;18054;51.572;7.372;2024-02-16T02:16:32;2.55;;;1.38;;
31424;SDS011;18054;51.572;7.372;2024-02-16T02:19:13;7.40;;;1.50;;
31424;SDS011;18054;51.572;7.372;2024-02-16T02:21:40;3.97;;;1.42;;
31424;SDS011;18054;51.572;7.372;2024-02-16T02:24:09;5.03;;;1.60;;
31424;SDS011;18054;51.572;7.372;2024-02-16T02:26:37;5.57;;;1.70;;
31424;SDS011;18054;51.572;7.372;2024-02-16T02:31:32;5.35;;;1.70;;
31424;SDS011;18054;51.572;7.372;2024-02-16T02:33:59;5.95;;;1.83;;
31424;SDS011;18054;51.572;7.372;2024-02-16T02:36:27;5.47;;;1.85;;
31424;SDS011;18054;51.572;7.372;2024-02-16T02:38:55;12.75;;;2.15;;
31424;SDS011;18054;51.572;7.372;2024-02-16T02:41:25;6.50;;;1.42;;
31424;SDS011;18054;51.572;7.372;2024-02-16T02:43:53;4.93;;;1.65;;
31424;SDS011;18054;51.572;7.372;2024-02-16T02:46:22;7.57;;;1.92;;
31424;SDS011;18054;51.572;7.372;2024-02-16T02:48:50;4.97;;;1.70;;
31424;SDS011;18054;51.572;7.372;2024-02-16T02:51:18;7.25;;;1.70;;
31424;SDS011;18054;51.572;7.372;2024-02-16T02:53:46;4.50;;;1.52;;
31424;SDS011;18054;51.572;7.372;2024-02-16T02:56:13;4.20;;;1.50;;
31424;SDS011;18054;51.572;7.372;2024-02-16T02:58:42;9.73;;;1.95;;
31424;SDS011;18054;51.572;7.372;2024-02-16T03:01:09;6.00;;;1.35;;
31424;SDS011;18054;51.572;7.372;2024-02-16T03:06:06;5.70;;;1.65;;
31424;SDS011;18054;51.572;7.372;2024-02-16T03:08:33;4.82;;;1.70;;
31424;SDS011;18054;51.572;7.372;2024-02-16T03:11:01;3.40;;;1.42;;
31424;SDS011;18054;51.572;7.372;2024-02-16T03:13:31;12.18;;;1.45;;
31424;SDS011;18054;51.572;7.372;2024-02-16T03:16:00;4.35;;;1.55;;
31424;SDS011;18054;51.572;7.372;2024-02-16T03:18:29;4.50;;;1.80;;
31424;SDS011;18054;51.572;7.372;2024-02-16T03:20:56;2.58;;;1.38;;
31424;SDS011;18054;51.572;7.372;2024-02-16T03:23:24;4.75;;;1.77;;
31424;SDS011;18054;51.572;7.372;2024-02-16T03:25:51;8.23;;;1.50;;
31424;SDS011;18054;51.572;7.372;2024-02-16T03:28:19;4.75;;;1.52;;
31424;SDS011;18054;51.572;7.372;2024-02-16T03:30:47;4.60;;;1.63;;
31424;SDS011;18054;51.572;7.372;2024-02-16T03:33:15;4.85;;;1.60;;
31424;SDS011;18054;51.572;7.372;2024-02-16T03:35:43;8.63;;;1.92;;
31424;SDS011;18054;51.572;7.372;2024-02-16T03:38:11;3.78;;;1.63;;
31424;SDS011;18054;51.572;7.372;2024-02-16T03:40:39;5.10;;;1.50;;
31424;SDS011;18054;51.572;7.372;2024-02-16T03:45:34;5.00;;;1.95;;
31424;SDS011;18054;51.572;7.372;2024-02-16T03:48:02;4.57;;;1.33;;
31424;SDS011;18054;51.572;7.372;2024-02-16T03:50:32;6.38;;;2.13;;
31424;SDS011;18054;51.572;7.372;2024-02-16T03:52:59;5.20;;;1.50;;
31424;SDS011;18054;51.572;7.372;2024-02-16T03:55:26;6.95;;;1.50;;
31424;SDS011;18054;51.572;7.372;2024-02-16T03:57:54;7.57;;;2.13;;
31424;SDS011;18054;51.572;7.372;2024-02-16T04:00:22;3.92;;;1.50;;
31424;SDS011;18054;51.572;7.372;2024-02-16T04:05:17;5.43;;;1.73;;
31424;SDS011;18054;51.572;7.372;2024-02-16T04:07:46;10.63;;;2.08;;
31424;SDS011;18054;51.572;7.372;2024-02-16T04:10:14;4.03;;;1.38;;
31424;SDS011;18054;51.572;7.372;2024-02-16T04:12:41;5.85;;;1.73;;
31424;SDS011;18054;51.572;7.372;2024-02-16T04:15:09;5.88;;;1.70;;
31424;SDS011;18054;51.572;7.372;2024-02-16T04:20:05;4.50;;;1.58;;
31424;SDS011;18054;51.572;7.372;2024-02-16T04:22:33;4.38;;;1.52;;
31424;SDS011;18054;51.572;7.372;2024-02-16T04:25:06;5.75;;;1.98;;
31424;SDS011;18054;51.572;7.372;2024-02-16T04:27:33;4.13;;;1.73;;
31424;SDS011;18054;51.572;7.372;2024-02-16T04:32:29;5.68;;;1.80;;
31424;SDS011;18054;51.572;7.372;2024-02-16T04:37:25;5.18;;;1.90;;
31424;SDS011;18054;51.572;7.372;2024-02-16T04:42:21;6.30;;;1.70;;
31424;SDS011;18054;51.572;7.372;2024-02-16T04:44:49;6.40;;;1.75;;
31424;SDS011;18054;51.572;7.372;2024-02-16T04:49:44;5.18;;;1.75;;
31424;SDS011;18054;51.572;7.372;2024-02-16T04:52:12;6.57;;;2.30;;
31424;SDS011;18054;51.572;7.372;2024-02-16T04:54:40;9.30;;;1.92;;
31424;SDS011;18054;51.572;7.372;2024-02-16T04:57:07;5.00;;;1.90;;
31424;SDS011;18054;51.572;7.372;2024-02-16T04:59:36;7.20;;;1.83;;
31424;SDS011;18054;51.572;7.372;2024-02-16T05:02:04;7.82;;;1.83;;
31424;SDS011;18054;51.572;7.372;2024-02-16T05:04:33;5.07;;;1.70;;
31424;SDS011;18054;51.572;7.372;2024-02-16T05:07:01;5.80;;;1.92;;
31424;SDS011;18054;51.572;7.372;2024-02-16T05:09:28;6.93;;;1.40;;
31424;SDS011;18054;51.572;7.372;2024-02-16T05:14:23;4.43;;;1.50;;
31424;SDS011;18054;51.572;7.372;2024-02-16T05:19:21;7.25;;;2.17;;
31424;SDS011;18054;51.572;7.372;2024-02-16T05:21:49;4.57;;;1.65;;
31424;SDS011;18054;51.572;7.372;2024-02-16T05:24:17;6.13;;;2.15;;
31424;SDS011;18054;51.572;7.372;2024-02-16T05:26:45;9.27;;;1.90;;
31424;SDS011;18054;51.572;7.372;2024-02-16T05:31:40;5.70;;;1.58;;
31424;SDS011;18054;51.572;7.372;2024-02-16T05:34:07;4.75;;;1.67;;
31424;SDS011;18054;51.572;7.372;2024-02-16T05:36:37;4.00;;;1.50;;
31424;SDS011;18054;51.572;7.372;2024-02-16T05:39:04;14.07;;;1.80;;
31424;SDS011;18054;51.572;7.372;2024-02-16T05:41:47;6.15;;;1.70;;
31424;SDS011;18054;51.572;7.372;2024-02-16T05:44:15;8.40;;;1.80;;
31424;SDS011;18054;51.572;7.372;2024-02-16T05:46:44;6.10;;;1.90;;
31424;SDS011;18054;51.572;7.372;2024-02-16T05:49:11;10.32;;;1.80;;
31424;SDS011;18054;51.572;7.372;2024-02-16T05:54:08;7.75;;;2.50;;
31424;SDS011;18054;51.572;7.372;2024-02-16T05:56:37;9.00;;;5.05;;
31424;SDS011;18054;51.572;7.372;2024-02-16T05:59:05;7.53;;;3.72;;
31424;SDS011;18054;51.572;7.372;2024-02-16T06:01:33;6.85;;;3.25;;
31424;SDS011;18054;51.572;7.372;2024-02-16T06:04:00;10.85;;;6.85;;
31424;SDS011;18054;51.572;7.372;2024-02-16T06:06:28;7.10;;;3.10;;
31424;SDS011;18054;51.572;7.372;2024-02-16T06:08:56;14.15;;;2.33;;
31424;SDS011;18054;51.572;7.372;2024-02-16T06:13:52;6.28;;;2.00;;
31424;SDS011;18054;51.572;7.372;2024-02-16T06:16:20;8.38;;;2.05;;
31424;SDS011;18054;51.572;7.372;2024-02-16T06:18:48;7.10;;;2.40;;
31424;SDS011;18054;51.572;7.372;2024-02-16T06:21:17;7.00;;;1.65;;
31424;SDS011;18054;51.572;7.372;2024-02-16T06:26:12;6.80;;;3.00;;
31424;SDS011;18054;51.572;7.372;2024-02-16T06:28:40;6.78;;;2.72;;
31424;SDS011;18054;51.572;7.372;2024-02-16T06:31:09;9.18;;;2.60;;
31424;SDS011;18054;51.572;7.372;2024-02-16T06:33:37;7.78;;;3.88;;
31424;SDS011;18054;51.572;7.372;2024-02-16T06:36:05;5.47;;;2.50;;
31424;SDS011;18054;51.572;7.372;2024-02-16T06:38:33;9.00;;;2.13;;
31424;SDS011;18054;51.572;7.372;2024-02-16T06:41:01;6.20;;;2.13;;
31424;SDS011;18054;51.572;7.372;2024-02-16T06:43:29;6.22;;;2.03;;
31424;SDS011;18054;51.572;7.372;2024-02-16T06:45:58;110.22;;;4.45;;
31424;SDS011;18054;51.572;7.372;2024-02-16T06:48:27;8.70;;;2.47;;
31424;SDS011;18054;51.572;7.372;2024-02-16T06:50:55;14.48;;;2.30;;
31424;SDS011;18054;51.572;7.372;2024-02-16T06:53:22;12.70;;;2.70;;
31424;SDS011;18054;51.572;7.372;2024-02-16T06:55:50;9.88;;;2.22;;
31424;SDS011;18054;51.572;7.372;2024-02-16T06:58:18;7.00;;;2.30;;
31424;SDS011;18054;51.572;7.372;2024-02-16T07:00:46;5.88;;;2.20;;
31424;SDS011;18054;51.572;7.372;2024-02-16T07:03:14;9.32;;;2.30;;
31424;SDS011;18054;51.572;7.372;2024-02-16T07:05:43;11.18;;;2.38;;
31424;SDS011;18054;51.572;7.372;2024-02-16T07:08:11;7.55;;;2.13;;
31424;SDS011;18054;51.572;7.372;2024-02-16T07:10:39;8.70;;;2.78;;
31424;SDS011;18054;51.572;7.372;2024-02-16T07:13:07;6.93;;;2.17;;
31424;SDS011;18054;51.572;7.372;2024-02-16T07:15:35;6.35;;;2.30;;
31424;SDS011;18054;51.572;7.372;2024-02-16T07:20:31;7.85;;;1.95;;
31424;SDS011;18054;51.572;7.372;2024-02-16T07:23:00;16.52;;;2.45;;
31424;SDS011;18054;51.572;7.372;2024-02-16T07:25:28;6.45;;;2.42;;
31424;SDS011;18054;51.572;7.372;2024-02-16T07:27:55;4.10;;;2.08;;
31424;SDS011;18054;51.572;7.372;2024-02-16T07:32:58;4.60;;;2.17;;
31424;SDS011;18054;51.572;7.372;2024-02-16T07:35:26;7.82;;;2.22;;
31424;SDS011;18054;51.572;7.372;2024-02-16T07:37:54;6.68;;;2.40;;
31424;SDS011;18054;51.572;7.372;2024-02-16T07:40:23;8.90;;;2.10;;
31424;SDS011;18054;51.572;7.372;2024-02-16T07:42:51;7.32;;;2.40;;
31424;SDS011;18054;51.572;7.372;2024-02-16T07:45:19;9.38;;;2.25;;
31424;SDS011;18054;51.572;7.372;2024-02-16T07:50:17;6.70;;;2.10;;
31424;SDS011;18054;51.572;7.372;2024-02-16T07:52:45;7.72;;;2.65;;
31424;SDS011;18054;51.572;7.372;2024-02-16T07:55:13;7.32;;;2.72;;
31424;SDS011;18054;51.572;7.372;2024-02-16T07:57:42;10.15;;;3.58;;
31424;SDS011;18054;51.572;7.372;2024-02-16T08:00:10;8.77;;;3.08;;
31424;SDS011;18054;51.572;7.372;2024-02-16T08:02:38;13.10;;;2.40;;
31424;SDS011;18054;51.572;7.372;2024-02-16T08:05:08;8.65;;;2.50;;
31424;SDS011;18054;51.572;7.372;2024-02-16T08:07:36;5.68;;;2.25;;
31424;SDS011;18054;51.572;7.372;2024-02-16T08:17:28;5.38;;;2.08;;
31424;SDS011;18054;51.572;7.372;2024-02-16T08:19:56;5.45;;;2.00;;
31424;SDS011;18054;51.572;7.372;2024-02-16T08:24:52;18.20;;;2.67;;
31424;SDS011;18054;51.572;7.372;2024-02-16T08:27:19;6.82;;;2.95;;
31424;SDS011;18054;51.572;7.372;2024-02-16T08:29:47;7.65;;;2.10;;
31424;SDS011;18054;51.572;7.372;2024-02-16T08:32:15;7.13;;;2.35;;
31424;SDS011;18054;51.572;7.372;2024-02-16T08:34:45;7.63;;;1.85;;
31424;SDS011;18054;51.572;7.372;2024-02-16T08:37:15;5.88;;;2.15;;
31424;SDS011;18054;51.572;7.372;2024-02-16T08:39:43;9.68;;;3.22;;
31424;SDS011;18054;51.572;7.372;2024-02-16T08:42:11;7.70;;;2.10;;
31424;SDS011;18054;51.572;7.372;2024-02-16T08:47:08;5.90;;;2.40;;
31424;SDS011;18054;51.572;7.372;2024-02-16T08:52:06;11.77;;;2.80;;
31424;SDS011;18054;51.572;7.372;2024-02-16T08:54:34;7.60;;;2.45;;
31424;SDS011;18054;51.572;7.372;2024-02-16T08:57:03;12.13;;;3.28;;
31424;SDS011;18054;51.572;7.372;2024-02-16T08:59:32;8.48;;;3.08;;
31424;SDS011;18054;51.572;7.372;2024-02-16T09:02:01;15.30;;;2.72;;
31424;SDS011;18054;51.572;7.372;2024-02-16T09:04:28;6.85;;;2.47;;
31424;SDS011;18054;51.572;7.372;2024-02-16T09:06:57;7.93;;;2.55;;
31424;SDS011;18054;51.572;7.372;2024-02-16T09:14:23;15.00;;;5.45;;
31424;SDS011;18054;51.572;7.372;2024-02-16T09:16:51;9.90;;;2.85;;
31424;SDS011;18054;51.572;7.372;2024-02-16T09:21:48;9.55;;;1.90;;
31424;SDS011;18054;51.572;7.372;2024-02-16T09:24:16;10.10;;;2.83;;
31424;SDS011;18054;51.572;7.372;2024-02-16T09:26:44;16.65;;;2.38;;
31424;SDS011;18054;51.572;7.372;2024-02-16T09:29:13;11.48;;;2.83;;
31424;SDS011;18054;51.572;7.372;2024-02-16T09:31:43;7.47;;;2.33;;
31424;SDS011;18054;51.572;7.372;2024-02-16T09:34:11;9.23;;;2.50;;
31424;SDS011;18054;51.572;7.372;2024-02-16T09:36:38;13.30;;;2.53;;
31424;SDS011;18054;51.572;7.372;2024-02-16T09:39:07;13.85;;;3.03;;
31424;SDS011;18054;51.572;7.372;2024-02-16T09:41:34;7.80;;;2.72;;
31424;SDS011;18054;51.572;7.372;2024-02-16T09:44:03;7.68;;;2.20;;
31424;SDS011;18054;51.572;7.372;2024-02-16T09:49:01;11.40;;;2.42;;
31424;SDS011;18054;51.572;7.372;2024-02-16T09:51:29;9.38;;;2.40;;
31424;SDS011;18054;51.572;7.372;2024-02-16T09:53:57;11.18;;;2.22;;
31424;SDS011;18054;51.572;7.372;2024-02-16T09:56:27;8.10;;;2.53;;
31424;SDS011;18054;51.572;7.372;2024-02-16T09:58:54;7.53;;;2.30;;
31424;SDS011;18054;51.572;7.372;2024-02-16T10:01:22;22.50;;;2.38;;
31424;SDS011;18054;51.572;7.372;2024-02-16T10:03:50;9.15;;;2.60;;
31424;SDS011;18054;51.572;7.372;2024-02-16T10:06:20;38.97;;;2.65;;
31424;SDS011;18054;51.572;7.372;2024-02-16T10:08:50;10.70;;;2.58;;
31424;SDS011;18054;51.572;7.372;2024-02-16T10:11:18;15.65;;;3.15;;
31424;SDS011;18054;51.572;7.372;2024-02-16T10:13:56;13.57;;;2.42;;
31424;SDS011;18054;51.572;7.372;2024-02-16T10:18:51;10.48;;;2.72;;
31424;SDS011;18054;51.572;7.372;2024-02-16T10:21:27;8.38;;;2.42;;
31424;SDS011;18054;51.572;7.372;2024-02-16T10:23:57;14.05;;;2.97;;
31424;SDS011;18054;51.572;7.372;2024-02-16T10:26:24;7.15;;;2.47;;
31424;SDS011;18054;51.572;7.372;2024-02-16T10:33:52;7.45;;;2.55;;
31424;SDS011;18054;51.572;7.372;2024-02-16T10:36:20;7.88;;;2.70;;
31424;SDS011;18054;51.572;7.372;2024-02-16T10:38:49;8.55;;;2.40;;
31424;SDS011;18054;51.572;7.372;2024-02-16T10:41:18;7.88;;;3.00;;
31424;SDS011;18054;51.572;7.372;2024-02-16T10:43:47;12.90;;;2.67;;
31424;SDS011;18054;51.572;7.372;2024-02-16T10:46:15;9.07;;;2.53;;
31424;SDS011;18054;51.572;7.372;2024-02-16T10:48:43;12.63;;;3.15;;
31424;SDS011;18054;51.572;7.372;2024-02-16T10:56:08;9.07;;;2.50;;
31424;SDS011;18054;51.572;7.372;2024-02-16T10:58:36;14.40;;;2.90;;
31424;SDS011;18054;51.572;7.372;2024-02-16T11:01:07;10.70;;;2.45;;
31424;SDS011;18054;51.572;7.372;2024-02-16T11:03:37;11.25;;;3.08;;
31424;SDS011;18054;51.572;7.372;2024-02-16T11:06:11;6.88;;;2.78;;
31424;SDS011;18054;51.572;7.372;2024-02-16T11:08:42;8.07;;;2.85;;
31424;SDS011;18054;51.572;7.372;2024-02-16T11:11:11;8.02;;;2.83;;
31424;SDS011;18054;51.572;7.372;2024-02-16T11:13:39;8.77;;;3.17;;
31424;SDS011;18054;51.572;7.372;2024-02-16T11:16:11;10.88;;;2.92;;
31424;SDS011;18054;51.572;7.372;2024-02-16T11:18:40;9.35;;;2.70;;
31424;SDS011;18054;51.572;7.372;2024-02-16T11:21:11;18.52;;;2.72;;
31424;SDS011;18054;51.572;7.372;2024-02-16T11:23:39;8.85;;;3.15;;
31424;SDS011;18054;51.572;7.372;2024-02-16T11:28:37;10.07;;;2.28;;
31424;SDS011;18054;51.572;7.372;2024-02-16T11:31:05;8.75;;;2.60;;
31424;SDS011;18054;51.572;7.372;2024-02-16T11:33:33;15.48;;;4.30;;
31424;SDS011;18054;51.572;7.372;2024-02-16T11:36:03;9.63;;;3.38;;
31424;SDS011;18054;51.572;7.372;2024-02-16T11:38:31;9.30;;;2.90;;
31424;SDS011;18054;51.572;7.372;2024-02-16T11:41:01;10.90;;;3.28;;
31424;SDS011;18054;51.572;7.372;2024-02-16T11:43:29;7.38;;;3.10;;
31424;SDS011;18054;51.572;7.372;2024-02-16T11:45:58;13.85;;;2.67;;
31424;SDS011;18054;51.572;7.372;2024-02-16T11:48:26;10.93;;;2.80;;
31424;SDS011;18054;51.572;7.372;2024-02-16T11:50:59;13.27;;;3.00;;
31424;SDS011;18054;51.572;7.372;2024-02-16T11:53:28;11.13;;;3.35;;
31424;SDS011;18054;51.572;7.372;2024-02-16T11:58:24;12.88;;;3.20;;
31424;SDS011;18054;51.572;7.372;2024-02-16T12:05:53;13.10;;;3.22;;
31424;SDS011;18054;51.572;7.372;2024-02-16T12:08:21;14.25;;;3.33;;
31424;SDS011;18054;51.572;7.372;2024-02-16T12:10:50;15.15;;;3.42;;
31424;SDS011;18054;51.572;7.372;2024-02-16T12:13:18;13.00;;;3.53;;
31424;SDS011;18054;51.572;7.372;2024-02-16T12:15:46;12.95;;;2.95;;
31424;SDS011;18054;51.572;7.372;2024-02-16T12:18:19;12.07;;;3.25;;
31424;SDS011;18054;51.572;7.372;2024-02-16T12:20:57;12.85;;;3.22;;
31424;SDS011;18054;51.572;7.372;2024-02-16T12:23:24;11.23;;;4.38;;
31424;SDS011;18054;51.572;7.372;2024-02-16T12:25:52;10.15;;;3.55;;
31424;SDS011;18054;51.572;7.372;2024-02-16T12:30:47;12.55;;;4.65;;
31424;SDS011;18054;51.572;7.372;2024-02-16T12:33:15;10.40;;;2.78;;
31424;SDS011;18054;51.572;7.372;2024-02-16T12:35:44;10.82;;;3.65;;
31424;SDS011;18054;51.572;7.372;2024-02-16T12:38:12;12.45;;;3.30;;
31424;SDS011;18054;51.572;7.372;2024-02-16T12:40:43;18.05;;;3.30;;
31424;SDS011;18054;51.572;7.372;2024-02-16T12:43:11;7.65;;;3.00;;
31424;SDS011;18054;51.572;7.372;2024-02-16T12:45:39;7.40;;;3.10;;
31424;SDS011;18054;51.572;7.372;2024-02-16T12:48:07;11.57;;;3.55;;
31424;SDS011;18054;51.572;7.372;2024-02-16T12:50:36;15.02;;;3.55;;
31424;SDS011;18054;51.572;7.372;2024-02-16T12:53:06;12.57;;;3.25;;
31424;SDS011;18054;51.572;7.372;2024-02-16T12:55:35;9.25;;;3.85;;
31424;SDS011;18054;51.572;7.372;2024-02-16T12:58:03;12.73;;;3.45;;
31424;SDS011;18054;51.572;7.372;2024-02-16T13:00:31;14.00;;;4.10;;
31424;SDS011;18054;51.572;7.372;2024-02-16T13:02:59;11.68;;;3.33;;
31424;SDS011;18054;51.572;7.372;2024-02-16T13:05:27;21.63;;;3.95;;
31424;SDS011;18054;51.572;7.372;2024-02-16T13:07:56;15.52;;;3.53;;
31424;SDS011;18054;51.572;7.372;2024-02-16T13:10:24;11.77;;;3.78;;
31424;SDS011;18054;51.572;7.372;2024-02-16T13:12:53;10.82;;;3.42;;
31424;SDS011;18054;51.572;7.372;2024-02-16T13:15:21;13.82;;;3.90;;
31424;SDS011;18054;51.572;7.372;2024-02-16T13:17:54;15.35;;;6.15;;
31424;SDS011;18054;51.572;7.372;2024-02-16T13:20:23;8.20;;;3.63;;
31424;SDS011;18054;51.572;7.372;2024-02-16T13:22:51;10.68;;;3.55;;
31424;SDS011;18054;51.572;7.372;2024-02-16T13:25:19;12.68;;;3.70;;
31424;SDS011;18054;51.572;7.372;2024-02-16T13:27:47;12.07;;;3.05;;
31424;SDS011;18054;51.572;7.372;2024-02-16T13:35:11;13.77;;;3.17;;
31424;SDS011;18054;51.572;7.372;2024-02-16T13:37:41;22.40;;;4.28;;
31424;SDS011;18054;51.572;7.372;2024-02-16T13:40:10;12.55;;;3.70;;
31424;SDS011;18054;51.572;7.372;2024-02-16T13:42:38;11.30;;;3.70;;
31424;SDS011;18054;51.572;7.372;2024-02-16T13:47:34;12.60;;;4.07;;
31424;SDS011;18054;51.572;7.372;2024-02-16T13:50:01;11.77;;;4.07;;
31424;SDS011;18054;51.572;7.372;2024-02-16T13:52:31;19.63;;;5.63;;
31424;SDS011;18054;51.572;7.372;2024-02-16T13:54:58;14.68;;;5.28;;
31424;SDS011;18054;51.572;7.372;2024-02-16T13:57:26;12.73;;;5.43;;
31424;SDS011;18054;51.572;7.372;2024-02-16T13:59:54;19.33;;;6.38;;
31424;SDS011;18054;51.572;7.372;2024-02-16T14:02:21;22.00;;;7.68;;
31424;SDS011;18054;51.572;7.372;2024-02-16T14:04:49;22.67;;;7.32;;
31424;SDS011;18054;51.572;7.372;2024-02-16T14:07:17;18.40;;;6.57;;
31424;SDS011;18054;51.572;7.372;2024-02-16T14:09:47;20.23;;;7.30;;
31424;SDS011;18054;51.572;7.372;2024-02-16T14:12:14;14.00;;;6.93;;
31424;SDS011;18054;51.572;7.372;2024-02-16T14:14:42;24.83;;;8.40;;
31424;SDS011;18054;51.572;7.372;2024-02-16T14:17:10;17.08;;;8.45;;
31424;SDS011;18054;51.572;7.372;2024-02-16T14:19:37;17.70;;;8.80;;
31424;SDS011;18054;51.572;7.372;2024-02-16T14:22:05;16.92;;;9.10;;
31424;SDS011;18054;51.572;7.372;2024-02-16T14:24:34;18.83;;;9.52;;
31424;SDS011;18054;51.572;7.372;2024-02-16T14:27:03;22.40;;;10.70;;
31424;SDS011;18054;51.572;7.372;2024-02-16T14:29:31;23.52;;;10.60;;
31424;SDS011;18054;51.572;7.372;2024-02-16T14:31:59;23.65;;;11.85;;
31424;SDS011;18054;51.572;7.372;2024-02-16T14:34:27;33.00;;;15.02;;
31424;SDS011;18054;51.572;7.372;2024-02-16T14:36:55;27.13;;;13.07;;
31424;SDS011;18054;51.572;7.372;2024-02-16T14:39:22;31.40;;;12.60;;
31424;SDS011;18054;51.572;7.372;2024-02-16T14:41:52;25.33;;;14.07;;
31424;SDS011;18054;51.572;7.372;2024-02-16T14:46:48;21.75;;;13.73;;
31424;SDS011;18054;51.572;7.372;2024-02-16T14:49:16;24.17;;;14.02;;
31424;SDS011;18054;51.572;7.372;2024-02-16T14:51:48;23.20;;;14.73;;
31424;SDS011;18054;51.572;7.372;2024-02-16T14:54:16;29.00;;;13.82;;
31424;SDS011;18054;51.572;7.372;2024-02-16T14:56:44;16.77;;;10.85;;
31424;SDS011;18054;51.572;7.372;2024-02-16T15:01:39;23.45;;;12.63;;
31424;SDS011;18054;51.572;7.372;2024-02-16T15:04:08;18.77;;;10.32;;
31424;SDS011;18054;51.572;7.372;2024-02-16T15:06:36;18.20;;;11.55;;
31424;SDS011;18054;51.572;7.372;2024-02-16T15:11:32;16.48;;;9.15;;
31424;SDS011;18054;51.572;7.372;2024-02-16T15:14:00;16.20;;;9.50;;
31424;SDS011;18054;51.572;7.372;2024-02-16T15:23:52;18.80;;;9.02;;
31424;SDS011;18054;51.572;7.372;2024-02-16T15:26:20;18.70;;;10.60;;
31424;SDS011;18054;51.572;7.372;2024-02-16T15:28:48;17.50;;;10.35;;
31424;SDS011;18054;51.572;7.372;2024-02-16T15:31:16;23.38;;;12.27;;
31424;SDS011;18054;51.572;7.372;2024-02-16T15:33:44;26.00;;;13.57;;
31424;SDS011;18054;51.572;7.372;2024-02-16T15:36:12;22.23;;;12.95;;
31424;SDS011;18054;51.572;7.372;2024-02-16T15:38:39;19.92;;;12.25;;
31424;SDS011;18054;51.572;7.372;2024-02-16T15:41:08;26.90;;;13.98;;
31424;SDS011;18054;51.572;7.372;2024-02-16T15:43:36;24.85;;;14.13;;
31424;SDS011;18054;51.572;7.372;2024-02-16T15:48:32;22.10;;;12.10;;
31424;SDS011;18054;51.572;7.372;2024-02-16T15:51:00;23.48;;;12.95;;
31424;SDS011;18054;51.572;7.372;2024-02-16T15:55:57;27.77;;;13.85;;
31424;SDS011;18054;51.572;7.372;2024-02-16T15:58:26;27.00;;;14.68;;
31424;SDS011;18054;51.572;7.372;2024-02-16T16:00:54;30.83;;;15.00;;
31424;SDS011;18054;51.572;7.372;2024-02-16T16:03:22;32.60;;;15.05;;
31424;SDS011;18054;51.572;7.372;2024-02-16T16:05:50;30.20;;;15.23;;
31424;SDS011;18054;51.572;7.372;2024-02-16T16:08:18;32.75;;;14.18;;
31424;SDS011;18054;51.572;7.372;2024-02-16T16:10:46;29.40;;;14.98;;
31424;SDS011;18054;51.572;7.372;2024-02-16T16:13:15;26.75;;;14.73;;
31424;SDS011;18054;51.572;7.372;2024-02-16T16:15:43;26.83;;;15.27;;
31424;SDS011;18054;51.572;7.372;2024-02-16T16:18:11;33.92;;;14.32;;
31424;SDS011;18054;51.572;7.372;2024-02-16T16:25:34;23.33;;;13.90;;
31424;SDS011;18054;51.572;7.372;2024-02-16T16:28:02;23.95;;;14.82;;
31424;SDS011;18054;51.572;7.372;2024-02-16T16:35:27;19.95;;;13.27;;
31424;SDS011;18054;51.572;7.372;2024-02-16T16:37:54;22.90;;;14.20;;
31424;SDS011;18054;51.572;7.372;2024-02-16T16:40:27;23.60;;;14.25;;
31424;SDS011;18054;51.572;7.372;2024-02-16T16:42:54;26.30;;;13.38;;
31424;SDS011;18054;51.572;7.372;2024-02-16T16:47:50;23.52;;;13.32;;
31424;SDS011;18054;51.572;7.372;2024-02-16T16:50:18;21.45;;;12.55;;
31424;SDS011;18054;51.572;7.372;2024-02-16T16:52:49;20.63;;;12.95;;
31424;SDS011;18054;51.572;7.372;2024-02-16T16:55:17;27.73;;;13.65;;
31424;SDS011;18054;51.572;7.372;2024-02-16T16:57:45;28.27;;;13.10;;
31424;SDS011;18054;51.572;7.372;2024-02-16T17:00:13;20.35;;;12.73;;
31424;SDS011;18054;51.572;7.372;2024-02-16T17:02:41;24.73;;;13.65;;
31424;SDS011;18054;51.572;7.372;2024-02-16T17:05:09;26.33;;;13.27;;
31424;SDS011;18054;51.572;7.372;2024-02-16T17:07:37;17.67;;;11.82;;
31424;SDS011;18054;51.572;7.372;2024-02-16T17:10:07;21.95;;;11.80;;
31424;SDS011;18054;51.572;7.372;2024-02-16T17:12:39;18.63;;;10.60;;
31424;SDS011;18054;51.572;7.372;2024-02-16T17:15:08;16.45;;;10.15;;
31424;SDS011;18054;51.572;7.372;2024-02-16T17:17:38;24.58;;;11.02;;
31424;SDS011;18054;51.572;7.372;2024-02-16T17:20:10;18.52;;;10.52;;
31424;SDS011;18054;51.572;7.372;2024-02-16T17:22:38;14.85;;;8.88;;